Terminal Aerodrome Forecast
Issued by NWS Shreveport, LA

Home | Current Version | Previous Version | Text Only | Print | Product List | Glossary On
Versions: 1 2 3 4 5 6 7 8 9 10 11 12 13
000
FTUS44 KSHV 232300
TAFTYR
TAF
KTYR 232320Z 2400/2424 08004KT P6SM SCT250
     FM241500 11007KT P6SM SKC=

USA.gov is the U.S. government's official web portal to all federal, state and local government web resources and services.